createdAt,value
2018-02-24T00:01:50.504Z,0.75
2018-02-24T00:04:18.955Z,0.75
2018-02-24T00:06:47.276Z,0.74
2018-02-24T00:09:15.595Z,0.66
2018-02-24T00:11:44.727Z,0.68
2018-02-24T00:14:13.057Z,0.50
2018-02-24T00:16:41.399Z,0.54
2018-02-24T00:19:10.508Z,0.70
2018-02-24T00:21:38.900Z,0.76
2018-02-24T00:24:08.056Z,0.75
2018-02-24T00:26:36.606Z,0.71
2018-02-24T00:29:05.674Z,0.68
2018-02-24T00:31:33.996Z,0.73
2018-02-24T00:34:02.468Z,0.66
2018-02-24T00:36:31.552Z,0.62
2018-02-24T00:39:00.653Z,0.76
2018-02-24T00:41:30.270Z,0.67
2018-02-24T00:43:58.592Z,0.70
2018-02-24T00:46:26.908Z,0.61
2018-02-24T00:48:56.351Z,0.76
2018-02-24T00:51:24.667Z,0.73
2018-02-24T00:53:53.011Z,0.74
2018-02-24T00:56:21.379Z,0.76
2018-02-24T00:58:49.745Z,0.76
2018-02-24T01:01:18.081Z,0.79
2018-02-24T01:03:46.441Z,0.80
2018-02-24T01:06:14.738Z,0.84
2018-02-24T01:08:43.086Z,0.78
2018-02-24T01:11:11.822Z,0.83
2018-02-24T01:13:40.142Z,0.79
2018-02-24T01:16:08.480Z,0.83
2018-02-24T01:18:37.589Z,0.86
2018-02-24T01:21:06.686Z,0.97
2018-02-24T01:23:35.809Z,0.92
2018-02-24T01:26:04.141Z,0.93
2018-02-24T01:28:32.509Z,0.91
2018-02-24T01:31:00.832Z,1.11
2018-02-24T01:33:30.605Z,1.24
2018-02-24T01:35:58.952Z,1.29
2018-02-24T01:38:27.282Z,1.41
2018-02-24T01:40:56.411Z,1.52
2018-02-24T01:43:24.985Z,1.48
2018-02-24T01:45:53.332Z,1.19
2018-02-24T01:48:22.437Z,1.47
2018-02-24T01:50:51.545Z,1.47
2018-02-24T01:53:19.876Z,1.50
2018-02-24T01:55:49.420Z,1.49
2018-02-24T01:58:17.761Z,1.49
2018-02-24T02:00:46.084Z,1.54
2018-02-24T02:03:15.183Z,1.50
2018-02-24T02:05:43.563Z,1.47
2018-02-24T02:08:11.872Z,1.54
2018-02-24T02:10:40.243Z,1.61
2018-02-24T02:13:08.601Z,1.71
2018-02-24T02:15:36.917Z,1.64
2018-02-24T02:18:05.733Z,1.07
2018-02-24T02:20:34.038Z,0.85
2018-02-24T02:23:03.098Z,1.00
2018-02-24T02:25:31.424Z,1.27
2018-02-24T02:27:59.761Z,1.40
2018-02-24T02:30:28.063Z,1.32
2018-02-24T02:32:57.225Z,1.25
2018-02-24T02:35:25.542Z,1.26
2018-02-24T02:37:53.883Z,1.35
2018-02-24T02:40:22.300Z,1.35
2018-02-24T02:42:50.637Z,1.75
2018-02-24T02:45:18.956Z,1.86
2018-02-24T02:47:48.050Z,1.59
2018-02-24T02:50:17.147Z,1.93
2018-02-24T02:52:45.506Z,1.93
2018-02-24T02:55:13.902Z,1.85
2018-02-24T02:57:43.000Z,1.80
2018-02-24T03:00:12.098Z,1.65
2018-02-24T03:02:41.518Z,1.80
2018-02-24T03:05:09.850Z,1.69
2018-02-24T03:07:38.194Z,1.59
2018-02-24T03:10:06.548Z,1.64
2018-02-24T03:12:34.897Z,1.72
2018-02-24T03:15:03.235Z,1.81
2018-02-24T03:17:31.577Z,1.73
2018-02-24T03:20:00.668Z,1.79
2018-02-24T03:22:29.011Z,1.96
2018-02-24T03:24:57.636Z,2.09
2018-02-24T03:27:25.967Z,2.17
2018-02-24T03:29:54.258Z,2.26
2018-02-24T03:32:22.603Z,2.20
2018-02-24T03:34:50.936Z,2.36
2018-02-24T03:37:19.265Z,2.27
2018-02-24T03:39:47.638Z,2.20
2018-02-24T03:42:15.986Z,2.00
2018-02-24T03:44:44.356Z,2.10
2018-02-24T03:47:14.579Z,2.09
2018-02-24T03:49:43.706Z,2.14
2018-02-24T03:52:12.003Z,2.28
2018-02-24T03:54:40.392Z,2.19
2018-02-24T03:57:08.725Z,2.21
2018-02-24T03:59:37.065Z,2.33
2018-02-24T04:02:05.413Z,2.44
2018-02-24T04:04:33.738Z,2.46
2018-02-24T04:07:02.071Z,2.41
2018-02-24T04:09:30.592Z,2.21
2018-02-24T04:11:59.179Z,2.25
2018-02-24T04:14:27.513Z,2.14
2018-02-24T04:16:55.896Z,2.23
2018-02-24T04:19:24.225Z,2.27
2018-02-24T04:21:53.315Z,2.38
2018-02-24T04:24:21.660Z,2.26
2018-02-24T04:26:49.955Z,2.33
2018-02-24T04:29:18.281Z,2.34
2018-02-24T04:31:47.799Z,2.26
2018-02-24T04:34:16.101Z,2.28
2018-02-24T04:36:44.401Z,2.33
2018-02-24T04:39:12.720Z,2.36
2018-02-24T04:41:41.054Z,2.40
2018-02-24T04:44:09.358Z,2.26
2018-02-24T04:46:38.485Z,2.40
2018-02-24T04:49:07.724Z,2.47
2018-02-24T04:51:36.102Z,2.44
2018-02-24T04:54:04.613Z,2.35
2018-02-24T04:56:33.703Z,2.44
2018-02-24T04:59:02.027Z,2.48
2018-02-24T05:01:30.362Z,2.56
2018-02-24T05:03:59.452Z,2.63
2018-02-24T05:06:27.780Z,2.64
2018-02-24T05:08:56.104Z,2.59
2018-02-24T05:11:24.401Z,2.84
2018-02-24T05:13:53.476Z,2.71
2018-02-24T05:16:22.384Z,2.76
2018-02-24T05:18:50.737Z,2.77
2018-02-24T05:21:19.069Z,2.62
2018-02-24T05:23:47.409Z,2.64
2018-02-24T05:26:15.731Z,2.93
2018-02-24T05:28:44.051Z,2.90
2018-02-24T05:31:12.429Z,3.02
2018-02-24T05:33:40.785Z,3.00
2018-02-24T05:36:09.114Z,3.07
2018-02-24T05:38:37.541Z,3.01
2018-02-24T05:41:05.864Z,3.04
2018-02-24T05:43:34.944Z,2.93
2018-02-24T05:46:03.679Z,3.04
2018-02-24T05:48:31.997Z,3.14
2018-02-24T05:51:00.344Z,3.22
2018-02-24T05:53:28.698Z,3.03
2018-02-24T05:55:57.039Z,2.97
2018-02-24T05:58:25.404Z,3.02
2018-02-24T06:00:53.988Z,3.04
2018-02-24T06:03:22.294Z,3.00
2018-02-24T06:05:50.607Z,2.83
2018-02-24T06:08:18.956Z,2.85
2018-02-24T06:10:48.066Z,2.71
2018-02-24T06:13:16.403Z,2.94
2018-02-24T06:15:44.777Z,2.79
2018-02-24T06:18:13.870Z,2.63
2018-02-24T06:20:42.214Z,2.89
2018-02-24T06:23:10.969Z,2.79
2018-02-24T06:25:39.306Z,2.83
2018-02-24T06:28:07.614Z,2.89
2018-02-24T06:30:35.982Z,3.07
2018-02-24T06:33:04.282Z,3.01
2018-02-24T06:35:32.629Z,3.04
2018-02-24T06:38:00.990Z,2.99
2018-02-24T06:40:29.305Z,2.96
2018-02-24T06:42:57.639Z,2.98
2018-02-24T06:45:26.099Z,2.95
2018-02-24T06:47:54.471Z,2.92
2018-02-24T06:50:23.796Z,3.19
2018-02-24T06:52:52.109Z,3.18
2018-02-24T06:55:20.433Z,3.24
2018-02-24T06:57:48.784Z,3.15
2018-02-24T07:00:17.168Z,3.23
2018-02-24T07:02:45.500Z,3.21
2018-02-24T07:05:13.800Z,3.28
2018-02-24T07:07:42.592Z,3.25
2018-02-24T07:10:10.894Z,3.44
2018-02-24T07:12:39.280Z,3.35
2018-02-24T07:15:08.409Z,3.46
2018-02-24T07:17:36.712Z,3.47
2018-02-24T07:20:05.017Z,3.57
2018-02-24T07:22:33.389Z,3.47
2018-02-24T07:25:01.707Z,3.57
2018-02-24T07:27:30.786Z,3.60
2018-02-24T07:30:00.392Z,3.64
2018-02-24T07:32:28.713Z,3.61
2018-02-24T07:34:57.044Z,3.52
2018-02-24T07:37:26.156Z,3.48
2018-02-24T07:39:54.503Z,3.75
2018-02-24T07:42:22.809Z,3.68
2018-02-24T07:44:51.164Z,3.71
2018-02-24T07:47:19.493Z,3.51
2018-02-24T07:49:47.835Z,3.99
2018-02-24T07:52:16.460Z,4.08
2018-02-24T07:54:44.768Z,3.76
2018-02-24T07:57:13.076Z,3.58
2018-02-24T07:59:41.424Z,3.39
2018-02-24T08:02:09.713Z,3.69
2018-02-24T08:04:38.053Z,3.42
2018-02-24T08:07:06.383Z,3.54
2018-02-24T08:09:34.727Z,3.41
2018-02-24T08:12:03.065Z,3.48
2018-02-24T08:14:32.442Z,3.56
2018-02-24T08:17:00.731Z,3.55
2018-02-24T08:19:29.826Z,3.46
2018-02-24T08:21:58.189Z,3.95
2018-02-24T08:24:26.517Z,3.53
2018-02-24T08:26:54.841Z,3.06
2018-02-24T08:29:23.201Z,3.14
2018-02-24T08:31:51.544Z,3.50
2018-02-24T08:34:19.915Z,3.71
2018-02-24T08:36:49.351Z,3.75
2018-02-24T08:39:17.711Z,3.87
2018-02-24T08:41:46.049Z,3.46
2018-02-24T08:44:15.190Z,3.49
2018-02-24T08:46:43.509Z,3.69
2018-02-24T08:49:11.957Z,4.13
2018-02-24T08:51:40.292Z,4.09
2018-02-24T08:54:09.455Z,4.37
2018-02-24T08:56:37.780Z,5.09
2018-02-24T08:59:07.577Z,5.05
2018-02-24T09:01:35.897Z,4.47
2018-02-24T09:04:04.197Z,5.12
2018-02-24T09:06:32.542Z,5.22
2018-02-24T09:09:00.860Z,5.21
2018-02-24T09:11:29.181Z,4.91
2018-02-24T09:13:57.543Z,5.99
2018-02-24T09:16:25.889Z,7.41
2018-02-24T09:18:54.264Z,7.05
2018-02-24T09:21:23.112Z,7.18
2018-02-24T09:23:51.468Z,7.57
2018-02-24T09:26:20.636Z,6.83
2018-02-24T09:28:49.001Z,7.09
2018-02-24T09:31:17.319Z,7.40
2018-02-24T09:33:45.665Z,7.49
2018-02-24T09:36:14.036Z,7.18
2018-02-24T09:38:42.387Z,6.29
2018-02-24T09:41:10.709Z,7.11
2018-02-24T09:43:39.428Z,8.52
2018-02-24T09:46:07.754Z,9.51
2018-02-24T09:48:36.053Z,8.81
2018-02-24T09:51:04.404Z,9.61
2018-02-24T09:53:32.742Z,9.80
2018-02-24T09:56:01.103Z,9.78
2018-02-24T09:58:29.500Z,9.26
2018-02-24T10:00:57.828Z,9.59
2018-02-24T10:03:26.131Z,10.18
2018-02-24T10:05:55.768Z,11.07
2018-02-24T10:08:24.881Z,12.01
2018-02-24T10:10:53.205Z,12.31
2018-02-24T10:13:22.426Z,12.50
2018-02-24T10:15:50.774Z,12.92
2018-02-24T10:18:19.128Z,11.59
2018-02-24T10:20:47.465Z,11.05
2018-02-24T10:23:15.836Z,11.27
2018-02-24T10:25:44.197Z,14.14
2018-02-24T10:28:13.157Z,16.44
2018-02-24T10:30:41.509Z,15.15
2018-02-24T10:33:10.618Z,15.01
2018-02-24T10:35:39.734Z,14.71
2018-02-24T10:38:08.056Z,13.91
2018-02-24T10:40:36.421Z,13.59
2018-02-24T10:43:04.875Z,14.45
2018-02-24T10:45:33.189Z,11.79
2018-02-24T10:48:01.509Z,10.57
2018-02-24T10:50:31.323Z,13.27
2018-02-24T10:52:59.913Z,14.77
2018-02-24T10:55:28.217Z,14.95
2018-02-24T11:00:31.235Z,14.04
2018-02-24T11:02:59.679Z,14.27
2018-02-24T11:05:28.040Z,13.51
2018-02-24T11:07:57.109Z,13.99
2018-02-24T11:10:25.569Z,16.57
2018-02-24T11:12:53.907Z,17.31
2018-02-24T11:15:22.978Z,15.85
2018-02-24T11:17:51.324Z,13.17
2018-02-24T11:20:19.644Z,10.94
2018-02-24T11:22:48.054Z,10.73
2018-02-24T11:25:16.391Z,9.71
2018-02-24T11:27:44.712Z,11.14
2018-02-24T11:30:13.040Z,10.64
2018-02-24T11:32:41.917Z,10.09
2018-02-24T11:35:10.358Z,11.50
2018-02-24T11:37:38.618Z,10.88
2018-02-24T11:40:06.970Z,12.12
2018-02-24T11:42:35.305Z,16.47
2018-02-24T11:45:03.642Z,18.22
2018-02-24T11:47:31.988Z,19.38
2018-02-24T11:50:00.349Z,19.66
2018-02-24T11:52:28.683Z,19.97
2018-02-24T11:54:57.764Z,19.42
2018-02-24T11:57:26.119Z,18.41
2018-02-24T11:59:54.457Z,16.52
2018-02-24T12:02:22.831Z,12.33
2018-02-24T12:04:52.156Z,12.80
2018-02-24T12:07:20.511Z,12.80
2018-02-24T12:09:48.956Z,14.03
2018-02-24T12:12:17.335Z,12.45
2018-02-24T12:14:45.665Z,12.54
2018-02-24T12:17:14.292Z,12.50
2018-02-24T12:19:42.621Z,13.83
2018-02-24T12:22:10.942Z,11.65
2018-02-24T12:24:39.330Z,9.84
2018-02-24T12:27:07.729Z,9.35
2018-02-24T12:29:36.184Z,8.28
2018-02-24T12:32:04.617Z,8.01
2018-02-24T12:34:32.999Z,7.75
2018-02-24T12:37:02.126Z,7.77
2018-02-24T12:39:30.671Z,10.80
2018-02-24T12:41:59.009Z,13.90
2018-02-24T12:44:27.369Z,15.72
2018-02-24T12:46:55.735Z,14.99
2018-02-24T12:49:24.078Z,13.39
2018-02-24T12:51:52.428Z,15.31
2018-02-24T12:54:20.773Z,17.68
2018-02-24T12:56:49.126Z,18.43
2018-02-24T12:59:17.465Z,19.58
2018-02-24T13:01:46.380Z,19.13
2018-02-24T13:04:15.504Z,17.23
2018-02-24T13:06:43.812Z,15.76
2018-02-24T13:09:12.483Z,17.07
2018-02-24T13:11:40.840Z,18.14
2018-02-24T13:14:09.201Z,15.49
2018-02-24T13:16:37.573Z,16.07
2018-02-24T13:19:06.685Z,15.09
2018-02-24T13:21:35.777Z,12.86
2018-02-24T13:24:05.211Z,10.58
2018-02-24T13:26:33.562Z,9.84
2018-02-24T13:29:02.687Z,9.28
2018-02-24T13:31:31.066Z,8.57
2018-02-24T13:33:59.457Z,8.20
2018-02-24T13:36:27.809Z,8.25
2018-02-24T13:38:56.218Z,8.52
2018-02-24T13:41:24.571Z,11.36
2018-02-24T13:43:52.894Z,12.63
2018-02-24T13:46:21.718Z,12.49
2018-02-24T13:48:50.097Z,13.01
2018-02-24T13:51:19.187Z,14.05
2018-02-24T13:53:48.350Z,14.50
2018-02-24T13:56:16.697Z,15.01
2018-02-24T13:58:45.117Z,15.34
2018-02-24T14:01:13.510Z,15.47
2018-02-24T14:03:41.868Z,16.63
2018-02-24T14:06:10.227Z,15.49
2018-02-24T14:08:39.275Z,13.52
2018-02-24T14:11:08.492Z,12.49
2018-02-24T14:13:36.854Z,10.38
2018-02-24T14:16:05.229Z,9.83
2018-02-24T14:18:34.422Z,8.68
2018-02-24T14:21:02.770Z,7.76
2018-02-24T14:23:32.024Z,7.47
2018-02-24T14:25:59.618Z,7.45
2018-02-24T14:28:27.949Z,7.98
2018-02-24T14:30:56.835Z,8.97
2018-02-24T14:33:25.216Z,9.43
2018-02-24T14:35:54.301Z,11.33
2018-02-24T14:38:22.688Z,12.40
2018-02-24T14:40:51.018Z,12.99
2018-02-24T14:43:19.362Z,14.28
2018-02-24T14:45:47.726Z,14.39
2018-02-24T14:48:16.124Z,13.94
2018-02-24T14:50:45.240Z,14.72
2018-02-24T14:53:14.012Z,13.04
2018-02-24T14:55:42.717Z,11.12
2018-02-24T14:58:11.075Z,10.57
2018-02-24T15:00:40.186Z,9.37
2018-02-24T15:03:08.521Z,8.28
2018-02-24T15:05:36.880Z,9.99
2018-02-24T15:08:05.276Z,11.25
2018-02-24T15:10:33.642Z,11.00
2018-02-24T15:13:02.008Z,10.84
2018-02-24T15:15:30.738Z,9.57
2018-02-24T15:17:59.865Z,8.97
2018-02-24T15:20:28.193Z,7.97
2018-02-24T15:22:56.546Z,7.52
2018-02-24T15:25:24.848Z,7.15
2018-02-24T15:27:53.165Z,6.39
2018-02-24T15:30:21.574Z,6.08
2018-02-24T15:32:49.929Z,5.99
2018-02-24T15:35:18.366Z,5.98
2018-02-24T15:37:46.805Z,6.20
2018-02-24T15:40:15.144Z,7.50
2018-02-24T15:42:43.544Z,7.79
2018-02-24T15:45:11.957Z,8.40
2018-02-24T15:47:40.437Z,8.65
2018-02-24T15:50:08.774Z,7.56
2018-02-24T15:52:37.175Z,6.03
2018-02-24T15:55:05.565Z,5.31
2018-02-24T15:57:33.866Z,5.09
2018-02-24T16:00:03.455Z,4.59
2018-02-24T16:02:32.658Z,4.70
2018-02-24T16:05:00.961Z,4.70
2018-02-24T16:07:29.306Z,4.61
2018-02-24T16:09:57.656Z,4.64
2018-02-24T16:12:26.760Z,4.35
2018-02-24T16:14:55.170Z,4.19
2018-02-24T16:17:23.522Z,4.21
2018-02-24T16:19:51.865Z,4.25
2018-02-24T16:22:20.522Z,4.06
2018-02-24T16:24:48.834Z,3.97
2018-02-24T16:27:17.191Z,4.14
2018-02-24T16:29:45.616Z,3.91
2018-02-24T16:32:13.944Z,3.65
2018-02-24T16:34:42.269Z,3.24
2018-02-24T16:37:10.677Z,3.13
2018-02-24T16:39:39.005Z,3.19
2018-02-24T16:42:07.404Z,3.43
2018-02-24T16:44:36.287Z,3.28
2018-02-24T16:47:04.678Z,3.44
2018-02-24T16:49:33.050Z,3.24
2018-02-24T16:52:01.469Z,2.99
2018-02-24T16:54:29.770Z,3.44
2018-02-24T16:56:58.090Z,3.09
2018-02-24T16:59:26.479Z,3.15
2018-02-24T17:01:54.822Z,3.33
2018-02-24T17:04:23.210Z,3.11
2018-02-24T17:06:53.450Z,2.91
2018-02-24T17:09:21.773Z,3.20
2018-02-24T17:11:50.164Z,3.13
2018-02-24T17:14:18.520Z,3.10
2018-02-24T17:16:46.860Z,3.01
2018-02-24T17:19:15.941Z,2.94
2018-02-24T17:21:44.285Z,2.79
2018-02-24T17:24:12.607Z,2.72
2018-02-24T17:26:41.705Z,2.60
2018-02-24T17:29:11.426Z,2.44
2018-02-24T17:31:40.521Z,2.16
2018-02-24T17:34:08.847Z,2.24
2018-02-24T17:36:37.195Z,2.11
2018-02-24T17:39:05.516Z,2.39
2018-02-24T17:41:33.870Z,1.95
2018-02-24T17:44:02.266Z,1.94
2018-02-24T17:46:30.597Z,1.82
2018-02-24T17:48:59.682Z,1.98
2018-02-24T17:51:28.217Z,1.99
2018-02-24T17:53:56.548Z,1.90
2018-02-24T17:56:25.655Z,1.69
2018-02-24T17:58:54.787Z,1.75
2018-02-24T18:01:23.151Z,1.63
2018-02-24T18:03:51.453Z,1.67
2018-02-24T18:06:19.834Z,1.76
2018-02-24T18:08:48.175Z,1.80
2018-02-24T18:11:16.530Z,1.91
2018-02-24T18:13:45.842Z,1.88
2018-02-24T18:16:14.183Z,1.84
2018-02-24T18:18:42.588Z,2.06
2018-02-24T18:21:11.726Z,1.73
2018-02-24T18:23:40.045Z,1.72
2018-02-24T18:26:08.382Z,1.76
2018-02-24T18:28:36.749Z,1.69
2018-02-24T18:31:05.077Z,1.82
2018-02-24T18:33:33.433Z,1.79
2018-02-24T18:36:02.488Z,1.61
2018-02-24T18:38:30.799Z,1.74
2018-02-24T18:40:59.095Z,1.79
2018-02-24T18:43:27.504Z,1.71
2018-02-24T18:45:55.835Z,1.58
2018-02-24T18:48:24.142Z,1.21
2018-02-24T18:50:52.504Z,1.36
2018-02-24T18:53:20.944Z,1.45
2018-02-24T18:55:50.070Z,1.63
2018-02-24T18:58:18.594Z,1.55
2018-02-24T19:00:47.677Z,1.42
2018-02-24T19:03:15.982Z,1.60
2018-02-24T19:05:44.334Z,1.68
2018-02-24T19:08:12.665Z,1.76
2018-02-24T19:10:40.992Z,1.61
2018-02-24T19:13:09.393Z,1.52
2018-02-24T19:15:38.550Z,1.66
2018-02-24T19:18:06.892Z,1.38
2018-02-24T19:20:36.160Z,1.32
2018-02-24T19:23:04.504Z,1.26
2018-02-24T19:25:32.857Z,1.33
2018-02-24T19:28:01.273Z,1.49
2018-02-24T19:30:29.643Z,1.50
2018-02-24T19:32:57.946Z,1.38
2018-02-24T19:35:26.336Z,1.48
2018-02-24T19:37:54.666Z,1.20
2018-02-24T19:40:22.984Z,1.32
2018-02-24T19:42:52.961Z,1.22
2018-02-24T19:45:21.274Z,0.99
2018-02-24T19:47:49.644Z,0.70
2018-02-24T19:50:17.988Z,0.84
2018-02-24T19:52:46.327Z,0.75
2018-02-24T19:55:14.664Z,0.75
2018-02-24T19:57:43.017Z,0.83
2018-02-24T20:00:11.374Z,1.01
2018-02-24T20:02:40.494Z,0.90
2018-02-24T20:05:09.212Z,0.67
2018-02-24T20:07:37.568Z,0.64
2018-02-24T20:10:05.885Z,0.57
2018-02-24T20:12:34.255Z,0.64
2018-02-24T20:15:02.568Z,0.61
2018-02-24T20:17:31.730Z,0.70
2018-02-24T20:20:00.559Z,0.63
2018-02-24T20:22:28.895Z,0.47
2018-02-24T20:24:57.204Z,0.62
2018-02-24T20:27:26.515Z,0.52
2018-02-24T20:29:55.609Z,0.75
2018-02-24T20:32:24.726Z,0.32
2018-02-24T20:34:53.089Z,0.49
2018-02-24T20:37:22.183Z,0.47
2018-02-24T20:39:50.532Z,0.26
2018-02-24T20:42:18.889Z,0.13
2018-02-24T20:44:47.201Z,0.25
2018-02-24T20:47:15.562Z,0.23
2018-02-24T20:49:43.973Z,0.38
2018-02-24T20:52:12.312Z,0.21
2018-02-24T20:54:40.664Z,0.34
2018-02-24T20:57:09.010Z,0.36
2018-02-24T20:59:37.418Z,0.42
2018-02-24T21:02:05.797Z,0.47
2018-02-24T21:04:34.160Z,0.42
2018-02-24T21:07:02.492Z,0.36
2018-02-24T21:09:30.793Z,0.66
2018-02-24T21:11:59.920Z,0.52
2018-02-24T21:14:28.246Z,0.51
2018-02-24T21:16:56.563Z,0.50
2018-02-24T21:19:24.952Z,0.52
2018-02-24T21:21:53.309Z,0.57
2018-02-24T21:24:22.397Z,0.46
2018-02-24T21:26:50.739Z,0.48
2018-02-24T21:29:19.082Z,0.47
2018-02-24T21:31:48.155Z,0.37
2018-02-24T21:34:18.129Z,0.48
2018-02-24T21:36:46.436Z,0.53
2018-02-24T21:39:14.790Z,0.58
2018-02-24T21:41:43.169Z,0.35
2018-02-24T21:44:11.506Z,0.34
2018-02-24T21:46:40.599Z,0.17
2018-02-24T21:49:09.717Z,0.42
2018-02-24T21:51:38.018Z,0.30
2018-02-24T21:54:06.355Z,0.27
2018-02-24T21:56:35.868Z,0.24
2018-02-24T21:59:04.185Z,0.30
2018-02-24T22:01:32.537Z,0.20
2018-02-24T22:04:00.916Z,0.34
2018-02-24T22:06:29.268Z,0.25
2018-02-24T22:08:58.372Z,0.20
2018-02-24T22:11:27.490Z,0.10
2018-02-24T22:13:55.812Z,0.09
2018-02-24T22:16:24.173Z,-0.03
2018-02-24T22:18:53.440Z,0.00
2018-02-24T22:21:21.785Z,0.06
2018-02-24T22:23:50.139Z,-0.18
2018-02-24T22:26:18.472Z,-0.18
2018-02-24T22:28:46.783Z,-0.02
2018-02-24T22:31:15.137Z,0.04
2018-02-24T22:33:43.529Z,-0.20
2018-02-24T22:36:11.887Z,-0.04
2018-02-24T22:38:40.234Z,-0.21
2018-02-24T22:41:08.674Z,-0.09
2018-02-24T22:43:36.982Z,-0.20
2018-02-24T22:46:05.296Z,-0.30
2018-02-24T22:48:39.098Z,-0.24
2018-02-24T22:51:07.409Z,-0.41
2018-02-24T22:53:35.711Z,-0.54
2018-02-24T22:56:04.893Z,-0.43
2018-02-24T22:58:33.225Z,-0.48
2018-02-24T23:01:02.328Z,-0.42
2018-02-24T23:03:31.178Z,-0.30
2018-02-24T23:05:59.564Z,-0.53
2018-02-24T23:08:27.893Z,-0.49
2018-02-24T23:10:56.260Z,-0.64
2018-02-24T23:13:24.615Z,-0.46
2018-02-24T23:15:53.716Z,-0.70
2018-02-24T23:18:22.860Z,-0.64
2018-02-24T23:20:51.184Z,-0.56
2018-02-24T23:23:19.528Z,-0.42
2018-02-24T23:25:48.204Z,-0.52
2018-02-24T23:28:16.546Z,-0.56
2018-02-24T23:30:45.672Z,-0.35
2018-02-24T23:33:14.009Z,-0.22
2018-02-24T23:35:42.366Z,-0.42
2018-02-24T23:38:10.712Z,-0.39
2018-02-24T23:40:39.068Z,-0.43
2018-02-24T23:43:07.412Z,-0.28
2018-02-24T23:45:35.741Z,-0.41
2018-02-24T23:48:04.299Z,-0.29
2018-02-24T23:50:32.628Z,-0.37
2018-02-24T23:53:00.941Z,-0.27
2018-02-24T23:55:29.289Z,-0.18
2018-02-24T23:57:57.641Z,-0.32
